sensor_id;sensor_type;location;lat;lon;timestamp;temperature;humidity
58582;DHT22;44361;51.476;5.700;2023-05-29T00:00:14;12.40;99.90
58582;DHT22;44361;51.476;5.700;2023-05-29T00:02:43;12.40;99.90
58582;DHT22;44361;51.476;5.700;2023-05-29T00:05:10;12.30;99.90
58582;DHT22;44361;51.476;5.700;2023-05-29T00:07:37;12.30;99.90
58582;DHT22;44361;51.476;5.700;2023-05-29T00:10:03;12.20;99.90
58582;DHT22;44361;51.476;5.700;2023-05-29T00:12:29;12.20;99.90
58582;DHT22;44361;51.476;5.700;2023-05-29T00:14:55;12.20;99.90
58582;DHT22;44361;51.476;5.700;2023-05-29T00:17:20;12.20;99.90
58582;DHT22;44361;51.476;5.700;2023-05-29T00:19:46;12.10;99.90
58582;DHT22;44361;51.476;5.700;2023-05-29T00:22:12;12.10;99.90
58582;DHT22;44361;51.476;5.700;2023-05-29T00:24:38;12.00;99.90
58582;DHT22;44361;51.476;5.700;2023-05-29T00:27:03;12.10;99.90
58582;DHT22;44361;51.476;5.700;2023-05-29T00:29:29;12.10;99.90
58582;DHT22;44361;51.476;5.700;2023-05-29T00:31:55;12.00;99.90
58582;DHT22;44361;51.476;5.700;2023-05-29T00:34:22;12.00;99.90
58582;DHT22;44361;51.476;5.700;2023-05-29T00:36:51;12.00;99.90
58582;DHT22;44361;51.476;5.700;2023-05-29T00:39:17;11.90;99.90
58582;DHT22;44361;51.476;5.700;2023-05-29T00:41:43;12.00;99.90
58582;DHT22;44361;51.476;5.700;2023-05-29T00:44:09;11.90;99.90
58582;DHT22;44361;51.476;5.700;2023-05-29T00:46:35;11.80;99.90
58582;DHT22;44361;51.476;5.700;2023-05-29T00:49:01;11.80;99.90
58582;DHT22;44361;51.476;5.700;2023-05-29T00:51:28;11.70;99.90
58582;DHT22;44361;51.476;5.700;2023-05-29T00:53:55;11.60;99.90
58582;DHT22;44361;51.476;5.700;2023-05-29T00:56:21;11.50;99.90
58582;DHT22;44361;51.476;5.700;2023-05-29T00:58:49;11.40;99.90
58582;DHT22;44361;51.476;5.700;2023-05-29T01:01:24;11.40;99.90
58582;DHT22;44361;51.476;5.700;2023-05-29T01:03:50;11.40;99.90
58582;DHT22;44361;51.476;5.700;2023-05-29T01:06:18;11.30;99.90
58582;DHT22;44361;51.476;5.700;2023-05-29T01:08:45;11.20;99.90
58582;DHT22;44361;51.476;5.700;2023-05-29T01:13:49;11.20;99.90
58582;DHT22;44361;51.476;5.700;2023-05-29T01:16:35;11.10;99.90
58582;DHT22;44361;51.476;5.700;2023-05-29T01:19:18;11.00;99.90
58582;DHT22;44361;51.476;5.700;2023-05-29T01:21:59;11.10;99.90
58582;DHT22;44361;51.476;5.700;2023-05-29T01:24:49;11.00;99.90
58582;DHT22;44361;51.476;5.700;2023-05-29T01:27:18;10.90;99.90
58582;DHT22;44361;51.476;5.700;2023-05-29T01:29:46;10.90;99.90
58582;DHT22;44361;51.476;5.700;2023-05-29T01:32:13;10.80;99.90
58582;DHT22;44361;51.476;5.700;2023-05-29T01:34:38;10.80;99.90
58582;DHT22;44361;51.476;5.700;2023-05-29T01:37:04;10.70;99.90
58582;DHT22;44361;51.476;5.700;2023-05-29T01:39:30;10.70;99.90
58582;DHT22;44361;51.476;5.700;2023-05-29T01:41:57;10.60;99.90
58582;DHT22;44361;51.476;5.700;2023-05-29T01:44:24;10.60;99.90
58582;DHT22;44361;51.476;5.700;2023-05-29T01:46:50;10.60;99.90
58582;DHT22;44361;51.476;5.700;2023-05-29T01:49:16;10.50;99.90
58582;DHT22;44361;51.476;5.700;2023-05-29T01:51:42;10.50;99.90
58582;DHT22;44361;51.476;5.700;2023-05-29T01:54:08;10.40;99.90
58582;DHT22;44361;51.476;5.700;2023-05-29T01:56:34;10.40;99.90
58582;DHT22;44361;51.476;5.700;2023-05-29T01:59:02;10.40;99.90
58582;DHT22;44361;51.476;5.700;2023-05-29T02:01:28;10.40;99.90
58582;DHT22;44361;51.476;5.700;2023-05-29T02:03:53;10.30;99.90
58582;DHT22;44361;51.476;5.700;2023-05-29T02:06:19;10.30;99.90
58582;DHT22;44361;51.476;5.700;2023-05-29T02:08:45;10.30;99.90
58582;DHT22;44361;51.476;5.700;2023-05-29T02:11:11;10.20;99.90
58582;DHT22;44361;51.476;5.700;2023-05-29T02:13:37;10.20;99.90
58582;DHT22;44361;51.476;5.700;2023-05-29T02:16:03;10.10;99.90
58582;DHT22;44361;51.476;5.700;2023-05-29T02:18:28;10.10;99.90
58582;DHT22;44361;51.476;5.700;2023-05-29T02:20:54;10.10;99.90
58582;DHT22;44361;51.476;5.700;2023-05-29T02:23:20;10.10;99.90
58582;DHT22;44361;51.476;5.700;2023-05-29T02:25:46;10.00;99.90
58582;DHT22;44361;51.476;5.700;2023-05-29T02:28:11;10.00;99.90
58582;DHT22;44361;51.476;5.700;2023-05-29T02:30:37;9.90;99.90
58582;DHT22;44361;51.476;5.700;2023-05-29T02:33:03;9.90;99.90
58582;DHT22;44361;51.476;5.700;2023-05-29T02:35:29;9.90;99.90
58582;DHT22;44361;51.476;5.700;2023-05-29T02:37:54;9.90;99.90
58582;DHT22;44361;51.476;5.700;2023-05-29T02:40:20;9.80;99.90
58582;DHT22;44361;51.476;5.700;2023-05-29T02:42:46;9.80;99.90
58582;DHT22;44361;51.476;5.700;2023-05-29T02:45:13;9.80;99.90
58582;DHT22;44361;51.476;5.700;2023-05-29T02:47:38;9.70;99.90
58582;DHT22;44361;51.476;5.700;2023-05-29T02:50:04;9.80;99.90
58582;DHT22;44361;51.476;5.700;2023-05-29T02:52:32;9.70;99.90
58582;DHT22;44361;51.476;5.700;2023-05-29T02:54:57;9.70;99.90
58582;DHT22;44361;51.476;5.700;2023-05-29T02:57:24;9.70;99.90
58582;DHT22;44361;51.476;5.700;2023-05-29T02:59:50;9.60;99.90
58582;DHT22;44361;51.476;5.700;2023-05-29T03:02:17;9.60;99.90
58582;DHT22;44361;51.476;5.700;2023-05-29T03:04:42;9.60;99.90
58582;DHT22;44361;51.476;5.700;2023-05-29T03:07:08;9.60;99.90
58582;DHT22;44361;51.476;5.700;2023-05-29T03:09:35;9.60;99.90
58582;DHT22;44361;51.476;5.700;2023-05-29T03:12:01;9.60;99.90
58582;DHT22;44361;51.476;5.700;2023-05-29T03:14:27;9.50;99.90
58582;DHT22;44361;51.476;5.700;2023-05-29T03:16:53;9.50;99.90
58582;DHT22;44361;51.476;5.700;2023-05-29T03:19:19;9.50;99.90
58582;DHT22;44361;51.476;5.700;2023-05-29T03:21:44;9.50;99.90
58582;DHT22;44361;51.476;5.700;2023-05-29T03:24:10;9.50;99.90
58582;DHT22;44361;51.476;5.700;2023-05-29T03:26:36;9.50;99.90
58582;DHT22;44361;51.476;5.700;2023-05-29T03:29:02;9.50;99.90
58582;DHT22;44361;51.476;5.700;2023-05-29T03:31:28;9.50;99.90
58582;DHT22;44361;51.476;5.700;2023-05-29T03:33:53;9.50;99.90
58582;DHT22;44361;51.476;5.700;2023-05-29T03:36:19;9.40;99.90
58582;DHT22;44361;51.476;5.700;2023-05-29T03:38:44;9.40;99.90
58582;DHT22;44361;51.476;5.700;2023-05-29T03:41:10;9.40;99.90
58582;DHT22;44361;51.476;5.700;2023-05-29T03:43:36;9.40;99.90
58582;DHT22;44361;51.476;5.700;2023-05-29T03:46:01;9.40;99.90
58582;DHT22;44361;51.476;5.700;2023-05-29T03:48:27;9.40;99.90
58582;DHT22;44361;51.476;5.700;2023-05-29T03:50:53;9.40;99.90
58582;DHT22;44361;51.476;5.700;2023-05-29T03:53:18;9.30;99.90
58582;DHT22;44361;51.476;5.700;2023-05-29T03:55:44;9.40;99.90
58582;DHT22;44361;51.476;5.700;2023-05-29T03:58:09;9.40;99.90
58582;DHT22;44361;51.476;5.700;2023-05-29T04:00:37;9.40;99.90
58582;DHT22;44361;51.476;5.700;2023-05-29T04:03:03;9.40;99.90
58582;DHT22;44361;51.476;5.700;2023-05-29T04:05:29;9.40;99.90
58582;DHT22;44361;51.476;5.700;2023-05-29T04:07:55;9.40;99.90
58582;DHT22;44361;51.476;5.700;2023-05-29T04:10:21;9.40;99.90
58582;DHT22;44361;51.476;5.700;2023-05-29T04:12:46;9.50;99.90
58582;DHT22;44361;51.476;5.700;2023-05-29T04:15:12;9.40;99.90
58582;DHT22;44361;51.476;5.700;2023-05-29T04:17:37;9.50;99.90
58582;DHT22;44361;51.476;5.700;2023-05-29T04:20:04;9.50;99.90
58582;DHT22;44361;51.476;5.700;2023-05-29T04:22:37;9.50;99.90
58582;DHT22;44361;51.476;5.700;2023-05-29T04:25:04;9.50;99.90
58582;DHT22;44361;51.476;5.700;2023-05-29T04:27:31;9.50;99.90
58582;DHT22;44361;51.476;5.700;2023-05-29T04:29:58;9.50;99.90
58582;DHT22;44361;51.476;5.700;2023-05-29T04:32:23;9.60;99.90
58582;DHT22;44361;51.476;5.700;2023-05-29T04:34:49;9.60;99.90
58582;DHT22;44361;51.476;5.700;2023-05-29T04:37:16;9.60;99.90
58582;DHT22;44361;51.476;5.700;2023-05-29T04:39:43;9.60;99.90
58582;DHT22;44361;51.476;5.700;2023-05-29T04:42:09;9.70;99.90
58582;DHT22;44361;51.476;5.700;2023-05-29T04:44:35;9.70;99.90
58582;DHT22;44361;51.476;5.700;2023-05-29T04:47:00;9.70;99.90
58582;DHT22;44361;51.476;5.700;2023-05-29T04:49:29;9.80;99.90
58582;DHT22;44361;51.476;5.700;2023-05-29T04:51:54;9.80;99.90
58582;DHT22;44361;51.476;5.700;2023-05-29T04:54:22;9.90;99.90
58582;DHT22;44361;51.476;5.700;2023-05-29T04:56:48;9.90;99.90
58582;DHT22;44361;51.476;5.700;2023-05-29T04:59:14;9.90;99.90
58582;DHT22;44361;51.476;5.700;2023-05-29T05:01:39;9.90;99.90
58582;DHT22;44361;51.476;5.700;2023-05-29T05:04:08;9.90;99.90
58582;DHT22;44361;51.476;5.700;2023-05-29T05:06:34;10.10;99.90
58582;DHT22;44361;51.476;5.700;2023-05-29T05:08:59;10.50;99.90
58582;DHT22;44361;51.476;5.700;2023-05-29T05:11:26;10.90;99.90
58582;DHT22;44361;51.476;5.700;2023-05-29T05:13:51;11.20;99.90
58582;DHT22;44361;51.476;5.700;2023-05-29T05:16:17;11.50;99.90
58582;DHT22;44361;51.476;5.700;2023-05-29T05:18:44;11.50;99.90
58582;DHT22;44361;51.476;5.700;2023-05-29T05:21:09;11.80;99.90
58582;DHT22;44361;51.476;5.700;2023-05-29T05:23:35;11.90;99.90
58582;DHT22;44361;51.476;5.700;2023-05-29T05:26:01;11.90;99.90
58582;DHT22;44361;51.476;5.700;2023-05-29T05:28:27;12.10;99.90
58582;DHT22;44361;51.476;5.700;2023-05-29T05:30:52;12.00;99.90
58582;DHT22;44361;51.476;5.700;2023-05-29T05:33:18;12.30;99.90
58582;DHT22;44361;51.476;5.700;2023-05-29T05:35:43;12.60;99.90
58582;DHT22;44361;51.476;5.700;2023-05-29T05:38:09;12.70;99.90
58582;DHT22;44361;51.476;5.700;2023-05-29T05:40:35;12.80;99.90
58582;DHT22;44361;51.476;5.700;2023-05-29T05:43:01;12.70;99.90
58582;DHT22;44361;51.476;5.700;2023-05-29T05:45:26;12.50;99.90
58582;DHT22;44361;51.476;5.700;2023-05-29T05:47:52;12.40;99.90
58582;DHT22;44361;51.476;5.700;2023-05-29T05:50:17;12.60;99.90
58582;DHT22;44361;51.476;5.700;2023-05-29T05:52:43;12.50;99.90
58582;DHT22;44361;51.476;5.700;2023-05-29T05:55:09;12.70;99.90
58582;DHT22;44361;51.476;5.700;2023-05-29T05:57:34;12.90;99.90
58582;DHT22;44361;51.476;5.700;2023-05-29T06:00:02;12.80;99.90
58582;DHT22;44361;51.476;5.700;2023-05-29T06:02:31;13.00;99.90
58582;DHT22;44361;51.476;5.700;2023-05-29T06:04:56;12.90;99.90
58582;DHT22;44361;51.476;5.700;2023-05-29T06:07:22;12.90;99.90
58582;DHT22;44361;51.476;5.700;2023-05-29T06:09:48;12.90;99.90
58582;DHT22;44361;51.476;5.700;2023-05-29T06:12:14;13.10;99.90
58582;DHT22;44361;51.476;5.700;2023-05-29T06:14:39;13.20;99.90
58582;DHT22;44361;51.476;5.700;2023-05-29T06:17:06;12.70;99.90
58582;DHT22;44361;51.476;5.700;2023-05-29T06:19:32;12.60;99.90
58582;DHT22;44361;51.476;5.700;2023-05-29T06:21:57;12.60;99.90
58582;DHT22;44361;51.476;5.700;2023-05-29T06:24:23;12.90;99.90
58582;DHT22;44361;51.476;5.700;2023-05-29T06:26:48;12.90;99.90
58582;DHT22;44361;51.476;5.700;2023-05-29T06:29:15;13.10;99.90
58582;DHT22;44361;51.476;5.700;2023-05-29T06:31:41;13.10;99.90
58582;DHT22;44361;51.476;5.700;2023-05-29T06:34:06;13.10;99.90
58582;DHT22;44361;51.476;5.700;2023-05-29T06:36:32;13.00;99.90
58582;DHT22;44361;51.476;5.700;2023-05-29T06:38:58;12.80;99.90
58582;DHT22;44361;51.476;5.700;2023-05-29T06:41:23;12.70;99.90
58582;DHT22;44361;51.476;5.700;2023-05-29T06:43:49;12.80;99.90
58582;DHT22;44361;51.476;5.700;2023-05-29T06:46:15;13.30;99.90
58582;DHT22;44361;51.476;5.700;2023-05-29T06:48:40;13.00;99.40
58582;DHT22;44361;51.476;5.700;2023-05-29T06:51:06;13.00;99.90
58582;DHT22;44361;51.476;5.700;2023-05-29T06:53:38;13.20;99.90
58582;DHT22;44361;51.476;5.700;2023-05-29T06:56:04;13.20;99.60
58582;DHT22;44361;51.476;5.700;2023-05-29T06:58:31;13.50;99.60
58582;DHT22;44361;51.476;5.700;2023-05-29T07:00:57;13.90;98.60
58582;DHT22;44361;51.476;5.700;2023-05-29T07:03:25;14.10;99.20
58582;DHT22;44361;51.476;5.700;2023-05-29T07:05:52;13.90;98.00
58582;DHT22;44361;51.476;5.700;2023-05-29T07:08:17;13.80;99.00
58582;DHT22;44361;51.476;5.700;2023-05-29T07:10:43;13.90;98.30
58582;DHT22;44361;51.476;5.700;2023-05-29T07:13:08;13.80;98.70
58582;DHT22;44361;51.476;5.700;2023-05-29T07:15:34;14.00;98.00
58582;DHT22;44361;51.476;5.700;2023-05-29T07:18:00;13.80;97.50
58582;DHT22;44361;51.476;5.700;2023-05-29T07:20:26;14.00;98.60
58582;DHT22;44361;51.476;5.700;2023-05-29T07:22:51;13.80;97.20
58582;DHT22;44361;51.476;5.700;2023-05-29T07:25:17;13.90;97.40
58582;DHT22;44361;51.476;5.700;2023-05-29T07:27:43;14.20;98.30
58582;DHT22;44361;51.476;5.700;2023-05-29T07:30:08;14.20;96.90
58582;DHT22;44361;51.476;5.700;2023-05-29T07:32:34;14.30;96.40
58582;DHT22;44361;51.476;5.700;2023-05-29T07:35:00;14.50;96.50
58582;DHT22;44361;51.476;5.700;2023-05-29T07:37:25;14.60;95.70
58582;DHT22;44361;51.476;5.700;2023-05-29T07:39:51;14.30;96.20
58582;DHT22;44361;51.476;5.700;2023-05-29T07:42:16;14.60;96.40
58582;DHT22;44361;51.476;5.700;2023-05-29T07:44:42;15.10;95.80
58582;DHT22;44361;51.476;5.700;2023-05-29T07:47:08;14.90;94.60
58582;DHT22;44361;51.476;5.700;2023-05-29T07:49:34;14.70;94.70
58582;DHT22;44361;51.476;5.700;2023-05-29T07:52:03;14.60;95.30
58582;DHT22;44361;51.476;5.700;2023-05-29T07:54:30;14.60;94.20
58582;DHT22;44361;51.476;5.700;2023-05-29T07:57:00;14.80;96.10
58582;DHT22;44361;51.476;5.700;2023-05-29T07:59:27;15.20;95.20
58582;DHT22;44361;51.476;5.700;2023-05-29T08:01:54;15.50;95.40
58582;DHT22;44361;51.476;5.700;2023-05-29T08:04:23;15.60;94.40
58582;DHT22;44361;51.476;5.700;2023-05-29T08:06:49;15.70;93.60
58582;DHT22;44361;51.476;5.700;2023-05-29T08:09:14;15.50;92.20
58582;DHT22;44361;51.476;5.700;2023-05-29T08:11:40;15.30;93.10
58582;DHT22;44361;51.476;5.700;2023-05-29T08:14:05;15.00;92.20
58582;DHT22;44361;51.476;5.700;2023-05-29T08:16:31;14.90;93.00
58582;DHT22;44361;51.476;5.700;2023-05-29T08:18:57;15.30;93.00
58582;DHT22;44361;51.476;5.700;2023-05-29T08:21:23;15.60;93.40
58582;DHT22;44361;51.476;5.700;2023-05-29T08:23:49;16.00;92.00
58582;DHT22;44361;51.476;5.700;2023-05-29T08:26:14;16.20;91.00
58582;DHT22;44361;51.476;5.700;2023-05-29T08:28:40;16.10;90.80
58582;DHT22;44361;51.476;5.700;2023-05-29T08:31:05;15.90;89.50
58582;DHT22;44361;51.476;5.700;2023-05-29T08:33:31;16.20;90.60
58582;DHT22;44361;51.476;5.700;2023-05-29T08:36:00;16.40;89.30
58582;DHT22;44361;51.476;5.700;2023-05-29T08:38:26;16.70;91.60
58582;DHT22;44361;51.476;5.700;2023-05-29T08:40:52;16.70;88.90
58582;DHT22;44361;51.476;5.700;2023-05-29T08:43:21;16.50;89.60
58582;DHT22;44361;51.476;5.700;2023-05-29T08:45:48;16.70;90.50
58582;DHT22;44361;51.476;5.700;2023-05-29T08:48:18;16.80;87.60
58582;DHT22;44361;51.476;5.700;2023-05-29T08:50:48;16.70;86.10
58582;DHT22;44361;51.476;5.700;2023-05-29T08:53:14;16.80;85.40
58582;DHT22;44361;51.476;5.700;2023-05-29T08:55:40;16.30;85.90
58582;DHT22;44361;51.476;5.700;2023-05-29T08:58:06;16.20;87.70
58582;DHT22;44361;51.476;5.700;2023-05-29T09:00:32;16.10;85.80
58582;DHT22;44361;51.476;5.700;2023-05-29T09:02:58;16.30;87.20
58582;DHT22;44361;51.476;5.700;2023-05-29T09:05:28;16.10;87.40
58582;DHT22;44361;51.476;5.700;2023-05-29T09:07:55;16.10;90.20
58582;DHT22;44361;51.476;5.700;2023-05-29T09:10:21;16.30;87.70
58582;DHT22;44361;51.476;5.700;2023-05-29T09:12:47;16.20;86.90
58582;DHT22;44361;51.476;5.700;2023-05-29T09:15:23;16.40;86.50
58582;DHT22;44361;51.476;5.700;2023-05-29T09:17:52;16.20;88.60
58582;DHT22;44361;51.476;5.700;2023-05-29T09:20:19;16.60;90.30
58582;DHT22;44361;51.476;5.700;2023-05-29T09:22:59;16.70;87.90
58582;DHT22;44361;51.476;5.700;2023-05-29T09:25:28;16.90;86.20
58582;DHT22;44361;51.476;5.700;2023-05-29T09:28:02;17.00;88.30
58582;DHT22;44361;51.476;5.700;2023-05-29T09:30:42;17.00;86.70
58582;DHT22;44361;51.476;5.700;2023-05-29T09:33:09;17.10;86.70
58582;DHT22;44361;51.476;5.700;2023-05-29T09:35:46;16.60;83.40
58582;DHT22;44361;51.476;5.700;2023-05-29T09:38:13;16.30;84.80
58582;DHT22;44361;51.476;5.700;2023-05-29T09:40:40;16.70;89.20
58582;DHT22;44361;51.476;5.700;2023-05-29T09:43:10;17.00;83.40
58582;DHT22;44361;51.476;5.700;2023-05-29T09:45:43;17.40;85.10
58582;DHT22;44361;51.476;5.700;2023-05-29T09:50:39;18.20;80.60
58582;DHT22;44361;51.476;5.700;2023-05-29T09:53:25;17.90;78.90
58582;DHT22;44361;51.476;5.700;2023-05-29T09:55:52;17.70;80.10
58582;DHT22;44361;51.476;5.700;2023-05-29T09:58:19;17.90;79.70
58582;DHT22;44361;51.476;5.700;2023-05-29T10:00:45;18.20;85.10
58582;DHT22;44361;51.476;5.700;2023-05-29T10:03:14;17.90;81.00
58582;DHT22;44361;51.476;5.700;2023-05-29T10:05:41;17.80;80.50
58582;DHT22;44361;51.476;5.700;2023-05-29T10:08:13;17.90;79.60
58582;DHT22;44361;51.476;5.700;2023-05-29T10:10:44;18.30;81.20
58582;DHT22;44361;51.476;5.700;2023-05-29T10:13:11;18.70;79.70
58582;DHT22;44361;51.476;5.700;2023-05-29T10:15:37;18.80;78.80
58582;DHT22;44361;51.476;5.700;2023-05-29T10:18:09;18.60;77.80
58582;DHT22;44361;51.476;5.700;2023-05-29T10:20:38;18.00;78.10
58582;DHT22;44361;51.476;5.700;2023-05-29T10:23:04;17.90;77.20
58582;DHT22;44361;51.476;5.700;2023-05-29T10:25:33;17.70;77.10
58582;DHT22;44361;51.476;5.700;2023-05-29T10:28:00;17.40;76.70
58582;DHT22;44361;51.476;5.700;2023-05-29T10:30:36;17.90;81.30
58582;DHT22;44361;51.476;5.700;2023-05-29T10:33:31;18.20;77.20
58582;DHT22;44361;51.476;5.700;2023-05-29T10:38:53;18.90;76.20
58582;DHT22;44361;51.476;5.700;2023-05-29T10:43:57;18.60;74.90
58582;DHT22;44361;51.476;5.700;2023-05-29T10:49:16;18.30;78.00
58582;DHT22;44361;51.476;5.700;2023-05-29T10:51:41;18.40;77.70
58582;DHT22;44361;51.476;5.700;2023-05-29T10:54:07;18.80;76.90
58582;DHT22;44361;51.476;5.700;2023-05-29T10:56:33;18.80;78.40
58582;DHT22;44361;51.476;5.700;2023-05-29T10:58:59;18.70;75.70
58582;DHT22;44361;51.476;5.700;2023-05-29T11:01:30;18.90;76.60
58582;DHT22;44361;51.476;5.700;2023-05-29T11:06:42;19.10;74.80
58582;DHT22;44361;51.476;5.700;2023-05-29T11:09:27;19.50;76.80
58582;DHT22;44361;51.476;5.700;2023-05-29T11:12:15;20.30;76.80
58582;DHT22;44361;51.476;5.700;2023-05-29T11:15:08;19.80;73.10
58582;DHT22;44361;51.476;5.700;2023-05-29T11:20:06;19.80;71.70
58582;DHT22;44361;51.476;5.700;2023-05-29T11:25:20;19.50;70.30
58582;DHT22;44361;51.476;5.700;2023-05-29T11:27:46;19.20;71.30
58582;DHT22;44361;51.476;5.700;2023-05-29T11:30:12;19.30;72.10
58582;DHT22;44361;51.476;5.700;2023-05-29T11:32:39;19.20;72.90
58582;DHT22;44361;51.476;5.700;2023-05-29T11:35:10;19.20;72.30
58582;DHT22;44361;51.476;5.700;2023-05-29T11:37:37;18.90;71.10
58582;DHT22;44361;51.476;5.700;2023-05-29T11:40:07;19.00;73.30
58582;DHT22;44361;51.476;5.700;2023-05-29T11:42:41;18.80;71.10
58582;DHT22;44361;51.476;5.700;2023-05-29T11:45:12;19.10;72.90
58582;DHT22;44361;51.476;5.700;2023-05-29T11:47:54;19.40;72.30
58582;DHT22;44361;51.476;5.700;2023-05-29T11:50:22;19.90;72.60
58582;DHT22;44361;51.476;5.700;2023-05-29T11:52:48;20.20;72.10
58582;DHT22;44361;51.476;5.700;2023-05-29T11:55:14;20.00;67.60
58582;DHT22;44361;51.476;5.700;2023-05-29T11:57:39;19.90;68.90
58582;DHT22;44361;51.476;5.700;2023-05-29T12:00:06;19.80;69.30
58582;DHT22;44361;51.476;5.700;2023-05-29T12:02:36;20.20;70.10
58582;DHT22;44361;51.476;5.700;2023-05-29T12:05:03;20.00;69.00
58582;DHT22;44361;51.476;5.700;2023-05-29T12:07:29;20.30;70.10
58582;DHT22;44361;51.476;5.700;2023-05-29T12:09:55;20.20;67.60
58582;DHT22;44361;51.476;5.700;2023-05-29T12:12:23;19.60;69.50
58582;DHT22;44361;51.476;5.700;2023-05-29T12:14:52;19.80;69.70
58582;DHT22;44361;51.476;5.700;2023-05-29T12:17:19;19.90;68.30
58582;DHT22;44361;51.476;5.700;2023-05-29T12:19:45;19.90;70.30
58582;DHT22;44361;51.476;5.700;2023-05-29T12:22:11;19.50;68.50
58582;DHT22;44361;51.476;5.700;2023-05-29T12:24:37;20.00;69.10
58582;DHT22;44361;51.476;5.700;2023-05-29T12:27:06;20.30;71.80
58582;DHT22;44361;51.476;5.700;2023-05-29T12:29:36;20.30;68.00
58582;DHT22;44361;51.476;5.700;2023-05-29T12:32:01;20.20;70.20
58582;DHT22;44361;51.476;5.700;2023-05-29T12:34:34;19.80;68.90
58582;DHT22;44361;51.476;5.700;2023-05-29T12:37:08;19.70;69.60
58582;DHT22;44361;51.476;5.700;2023-05-29T12:39:35;19.40;67.40
58582;DHT22;44361;51.476;5.700;2023-05-29T12:42:01;19.20;72.60
58582;DHT22;44361;51.476;5.700;2023-05-29T12:44:27;19.40;71.60
58582;DHT22;44361;51.476;5.700;2023-05-29T12:46:56;19.30;68.30
58582;DHT22;44361;51.476;5.700;2023-05-29T12:49:22;19.50;67.80
58582;DHT22;44361;51.476;5.700;2023-05-29T12:51:51;19.50;70.10
58582;DHT22;44361;51.476;5.700;2023-05-29T12:54:17;19.50;68.60
58582;DHT22;44361;51.476;5.700;2023-05-29T12:56:43;19.90;70.20
58582;DHT22;44361;51.476;5.700;2023-05-29T12:59:11;20.30;68.50
58582;DHT22;44361;51.476;5.700;2023-05-29T13:01:37;20.30;68.40
58582;DHT22;44361;51.476;5.700;2023-05-29T13:04:06;20.10;68.40
58582;DHT22;44361;51.476;5.700;2023-05-29T13:06:36;20.20;68.20
58582;DHT22;44361;51.476;5.700;2023-05-29T13:09:02;20.20;67.60
58582;DHT22;44361;51.476;5.700;2023-05-29T13:11:28;20.40;67.30
58582;DHT22;44361;51.476;5.700;2023-05-29T13:13:53;20.30;66.10
58582;DHT22;44361;51.476;5.700;2023-05-29T13:16:19;20.20;64.20
58582;DHT22;44361;51.476;5.700;2023-05-29T13:18:44;20.30;66.10
58582;DHT22;44361;51.476;5.700;2023-05-29T13:21:10;20.30;63.60
58582;DHT22;44361;51.476;5.700;2023-05-29T13:23:36;19.60;64.30
58582;DHT22;44361;51.476;5.700;2023-05-29T13:26:03;19.40;65.80
58582;DHT22;44361;51.476;5.700;2023-05-29T13:28:28;19.70;67.10
58582;DHT22;44361;51.476;5.700;2023-05-29T13:30:54;20.40;68.10
58582;DHT22;44361;51.476;5.700;2023-05-29T13:33:20;20.50;64.90
58582;DHT22;44361;51.476;5.700;2023-05-29T13:35:45;20.10;62.00
58582;DHT22;44361;51.476;5.700;2023-05-29T13:38:11;19.60;64.40
58582;DHT22;44361;51.476;5.700;2023-05-29T13:40:36;19.30;65.00
58582;DHT22;44361;51.476;5.700;2023-05-29T13:43:02;19.30;65.60
58582;DHT22;44361;51.476;5.700;2023-05-29T13:45:27;19.30;64.10
58582;DHT22;44361;51.476;5.700;2023-05-29T13:47:54;19.40;64.10
58582;DHT22;44361;51.476;5.700;2023-05-29T13:50:20;19.60;63.30
58582;DHT22;44361;51.476;5.700;2023-05-29T13:52:47;19.80;64.50
58582;DHT22;44361;51.476;5.700;2023-05-29T13:55:12;19.70;62.90
58582;DHT22;44361;51.476;5.700;2023-05-29T13:57:38;19.80;62.30
58582;DHT22;44361;51.476;5.700;2023-05-29T14:00:05;19.50;61.50
58582;DHT22;44361;51.476;5.700;2023-05-29T14:02:31;19.90;62.50
58582;DHT22;44361;51.476;5.700;2023-05-29T14:04:56;20.00;60.30
58582;DHT22;44361;51.476;5.700;2023-05-29T14:07:22;20.30;60.70
58582;DHT22;44361;51.476;5.700;2023-05-29T14:09:48;20.50;59.50
58582;DHT22;44361;51.476;5.700;2023-05-29T14:12:13;20.30;57.50
58582;DHT22;44361;51.476;5.700;2023-05-29T14:14:39;20.00;55.60
58582;DHT22;44361;51.476;5.700;2023-05-29T14:17:05;19.70;57.30
58582;DHT22;44361;51.476;5.700;2023-05-29T14:19:31;19.90;58.20
58582;DHT22;44361;51.476;5.700;2023-05-29T14:21:56;20.00;58.60
58582;DHT22;44361;51.476;5.700;2023-05-29T14:24:22;20.10;59.50
58582;DHT22;44361;51.476;5.700;2023-05-29T14:26:48;20.00;57.00
58582;DHT22;44361;51.476;5.700;2023-05-29T14:29:14;20.00;57.90
58582;DHT22;44361;51.476;5.700;2023-05-29T14:31:41;20.40;59.20
58582;DHT22;44361;51.476;5.700;2023-05-29T14:34:07;20.60;58.90
58582;DHT22;44361;51.476;5.700;2023-05-29T14:36:33;20.80;56.30
58582;DHT22;44361;51.476;5.700;2023-05-29T14:38:58;20.80;58.40
58582;DHT22;44361;51.476;5.700;2023-05-29T14:41:24;20.90;55.70
58582;DHT22;44361;51.476;5.700;2023-05-29T14:43:50;20.70;56.50
58582;DHT22;44361;51.476;5.700;2023-05-29T14:46:17;20.70;57.30
58582;DHT22;44361;51.476;5.700;2023-05-29T14:48:42;20.80;56.50
58582;DHT22;44361;51.476;5.700;2023-05-29T14:51:08;21.00;55.00
58582;DHT22;44361;51.476;5.700;2023-05-29T14:53:36;20.80;54.90
58582;DHT22;44361;51.476;5.700;2023-05-29T14:56:01;20.40;55.20
58582;DHT22;44361;51.476;5.700;2023-05-29T14:58:27;20.00;55.10
58582;DHT22;44361;51.476;5.700;2023-05-29T15:00:53;20.20;56.20
58582;DHT22;44361;51.476;5.700;2023-05-29T15:03:18;20.40;55.20
58582;DHT22;44361;51.476;5.700;2023-05-29T15:05:44;20.50;54.80
58582;DHT22;44361;51.476;5.700;2023-05-29T15:08:09;20.40;56.20
58582;DHT22;44361;51.476;5.700;2023-05-29T15:10:35;20.40;56.10
58582;DHT22;44361;51.476;5.700;2023-05-29T15:13:00;20.20;54.90
58582;DHT22;44361;51.476;5.700;2023-05-29T15:15:29;20.20;54.40
58582;DHT22;44361;51.476;5.700;2023-05-29T15:17:55;20.50;54.90
58582;DHT22;44361;51.476;5.700;2023-05-29T15:20:25;20.80;56.00
58582;DHT22;44361;51.476;5.700;2023-05-29T15:22:52;20.40;54.50
58582;DHT22;44361;51.476;5.700;2023-05-29T15:25:19;20.10;54.80
58582;DHT22;44361;51.476;5.700;2023-05-29T15:27:45;20.30;56.70
58582;DHT22;44361;51.476;5.700;2023-05-29T15:30:15;20.50;53.70
58582;DHT22;44361;51.476;5.700;2023-05-29T15:32:42;20.20;55.10
58582;DHT22;44361;51.476;5.700;2023-05-29T15:35:13;20.30;53.60
58582;DHT22;44361;51.476;5.700;2023-05-29T15:37:39;20.10;55.70
58582;DHT22;44361;51.476;5.700;2023-05-29T15:40:06;20.30;54.80
58582;DHT22;44361;51.476;5.700;2023-05-29T15:42:32;20.70;55.10
58582;DHT22;44361;51.476;5.700;2023-05-29T15:44:58;20.90;53.50
58582;DHT22;44361;51.476;5.700;2023-05-29T15:47:24;21.10;52.80
58582;DHT22;44361;51.476;5.700;2023-05-29T15:49:50;21.00;52.60
58582;DHT22;44361;51.476;5.700;2023-05-29T15:52:16;21.30;54.70